Wetterdaten: Sonntag, 10.10.2010
Datum Zeit Temp. A. Feuchte A. Luftdruck Regen Wind Richtung Richtung Sonnenschein UV Solar Windben
10.10.2010 00:00 11,2 C 75 % 1017,0 hPa 0,0 mm 3,2 km/h (1 Bft) O 90 0 min 0 UV-I 0 W/m 11,3 km/h (2 Bft)
10.10.2010 00:10 11,2 C 75 % 1016,9 hPa 0,0 mm 3,2 km/h (1 Bft) O-SO 112 0 min 0 UV-I 0 W/m 9,7 km/h (2 Bft)
10.10.2010 00:20 11,1 C 76 % 1016,7 hPa 0,0 mm 1,6 km/h (1 Bft) O 90 0 min 0 UV-I 0 W/m 6,4 km/h (2 Bft)
10.10.2010 00:30 10,8 C 77 % 1016,7 hPa 0,0 mm 0,0 km/h (0 Bft) O-SO 112 0 min 0 UV-I 0 W/m 6,4 km/h (2 Bft)
10.10.2010 00:40 10,7 C 77 % 1016,6 hPa 0,0 mm 0,0 km/h (0 Bft) O-SO 112 0 min 0 UV-I 0 W/m 4,8 km/h (1 Bft)
10.10.2010 00:50 10,4 C 78 % 1016,5 hPa 0,0 mm 0,0 km/h (0 Bft) O 90 0 min 0 UV-I 0 W/m 4,8 km/h (1 Bft)
10.10.2010 01:00 10,2 C 79 % 1016,5 hPa 0,0 mm 0,0 km/h (0 Bft) O 90 0 min 0 UV-I 0 W/m 4,8 km/h (1 Bft)
10.10.2010 01:10 10,1 C 79 % 1016,5 hPa 0,0 mm 0,0 km/h (0 Bft) O-NO 67 0 min 0 UV-I 0 W/m 3,2 km/h (1 Bft)
10.10.2010 01:20 10,0 C 79 % 1016,4 hPa 0,0 mm 0,0 km/h (0 Bft) O-NO 67 0 min 0 UV-I 0 W/m 3,2 km/h (1 Bft)
10.10.2010 01:30 10,0 C 79 % 1016,4 hPa 0,0 mm 1,6 km/h (1 Bft) O-SO 112 0 min 0 UV-I 0 W/m 6,4 km/h (2 Bft)
10.10.2010 01:40 10,1 C 79 % 1016,2 hPa 0,0 mm 1,6 km/h (1 Bft) O-SO 112 0 min 0 UV-I 0 W/m 6,4 km/h (2 Bft)
10.10.2010 01:50 10,1 C 78 % 1016,1 hPa 0,0 mm 1,6 km/h (1 Bft) O-SO 112 0 min 0 UV-I 0 W/m 8,0 km/h (2 Bft)
10.10.2010 02:00 10,1 C 78 % 1016,0 hPa 0,0 mm 1,6 km/h (1 Bft) O-SO 112 0 min 0 UV-I 0 W/m 6,4 km/h (2 Bft)
10.10.2010 02:10 10,1 C 78 % 1015,9 hPa 0,0 mm 0,0 km/h (0 Bft) O 90 0 min 0 UV-I 0 W/m 3,2 km/h (1 Bft)
10.10.2010 02:20 9,8 C 79 % 1015,9 hPa 0,0 mm 0,0 km/h (0 Bft) NO 45 0 min 0 UV-I 0 W/m 4,8 km/h (1 Bft)
10.10.2010 02:30 9,6 C 79 % 1015,6 hPa 0,0 mm 1,6 km/h (1 Bft) O-SO 112 0 min 0 UV-I 0 W/m 6,4 km/h (2 Bft)
10.10.2010 02:40 9,7 C 78 % 1015,6 hPa 0,0 mm 1,6 km/h (1 Bft) O-SO 112 0 min 0 UV-I 0 W/m 6,4 km/h (2 Bft)
10.10.2010 02:50 9,8 C 77 % 1015,7 hPa 0,0 mm 0,0 km/h (0 Bft) O-SO 112 0 min 0 UV-I 0 W/m 6,4 km/h (2 Bft)
10.10.2010 03:00 9,7 C 77 % 1015,5 hPa 0,0 mm 0,0 km/h (0 Bft) SO 135 0 min 0 UV-I 0 W/m 4,8 km/h (1 Bft)
10.10.2010 03:10 9,6 C 78 % 1015,5 hPa 0,0 mm 1,6 km/h (1 Bft) SO 135 0 min 0 UV-I 0 W/m 6,4 km/h (2 Bft)
10.10.2010 03:20 9,7 C 77 % 1015,3 hPa 0,0 mm 3,2 km/h (1 Bft) O 90 0 min 0 UV-I 0 W/m 8,0 km/h (2 Bft)
10.10.2010 03:30 9,7 C 77 % 1015,2 hPa 0,0 mm 3,2 km/h (1 Bft) O-SO 112 0 min 0 UV-I 0 W/m 9,7 km/h (2 Bft)
10.10.2010 03:40 9,7 C 78 % 1015,2 hPa 0,0 mm 3,2 km/h (1 Bft) O 90 0 min 0 UV-I 0 W/m 9,7 km/h (2 Bft)
10.10.2010 03:50 9,7 C 77 % 1015,1 hPa 0,0 mm 3,2 km/h (1 Bft) O-SO 112 0 min 0 UV-I 0 W/m 9,7 km/h (2 Bft)
10.10.2010 04:00 9,6 C 77 % 1015,2 hPa 0,0 mm 1,6 km/h (1 Bft) O 90 0 min 0 UV-I 0 W/m 9,7 km/h (2 Bft)
10.10.2010 04:10 9,5 C 77 % 1015,3 hPa 0,0 mm 1,6 km/h (1 Bft) O 90 0 min 0 UV-I 0 W/m 6,4 km/h (2 Bft)
10.10.2010 04:20 9,4 C 77 % 1015,2 hPa 0,0 mm 1,6 km/h (1 Bft) O-SO 112 0 min 0 UV-I 0 W/m 8,0 km/h (2 Bft)
10.10.2010 04:30 9,2 C 78 % 1015,1 hPa 0,0 mm 0,0 km/h (0 Bft) O-SO 112 0 min 0 UV-I 0 W/m 3,2 km/h (1 Bft)
10.10.2010 04:40 8,8 C 79 % 1015,2 hPa 0,0 mm 0,0 km/h (0 Bft) O 90 0 min 0 UV-I 0 W/m 3,2 km/h (1 Bft)
10.10.2010 04:50 8,7 C 79 % 1015,2 hPa 0,0 mm 0,0 km/h (0 Bft) NO 45 0 min 0 UV-I 0 W/m 6,4 km/h (2 Bft)
10.10.2010 05:00 8,6 C 79 % 1015,1 hPa 0,0 mm 1,6 km/h (1 Bft) O 90 0 min 0 UV-I 0 W/m 8,0 km/h (2 Bft)
10.10.2010 05:10 8,6 C 79 % 1015,1 hPa 0,0 mm 0,0 km/h (0 Bft) O-NO 67 0 min 0 UV-I 0 W/m 4,8 km/h (1 Bft)
10.10.2010 05:20 8,4 C 80 % 1015,1 hPa 0,0 mm 1,6 km/h (1 Bft) O 90 0 min 0 UV-I 0 W/m 8,0 km/h (2 Bft)
10.10.2010 05:30 8,3 C 80 % 1015,1 hPa 0,0 mm 1,6 km/h (1 Bft) O-SO 112 0 min 0 UV-I 0 W/m 9,7 km/h (2 Bft)
10.10.2010 05:40 8,3 C 79 % 1015,0 hPa 0,0 mm 1,6 km/h (1 Bft) O 90 0 min 0 UV-I 0 W/m 9,7 km/h (2 Bft)
10.10.2010 05:50 8,3 C 79 % 1015,1 hPa 0,0 mm 1,6 km/h (1 Bft) O 90 0 min 0 UV-I 0 W/m 9,7 km/h (2 Bft)
10.10.2010 06:00 8,2 C 79 % 1015,1 hPa 0,0 mm 0,0 km/h (0 Bft) O-SO 112 0 min 0 UV-I 0 W/m 3,2 km/h (1 Bft)
10.10.2010 06:10 8,1 C 80 % 1015,0 hPa 0,0 mm 0,0 km/h (0 Bft) O-SO 112 0 min 0 UV-I 0 W/m 6,4 km/h (2 Bft)
10.10.2010 06:20 7,9 C 80 % 1015,0 hPa 0,0 mm 1,6 km/h (1 Bft) O-SO 112 0 min 0 UV-I 0 W/m 6,4 km/h (2 Bft)
10.10.2010 06:30 7,8 C 81 % 1015,0 hPa 0,0 mm 4,8 km/h (1 Bft) O-SO 112 0 min 0 UV-I 0 W/m 11,3 km/h (2 Bft)
10.10.2010 06:40 7,9 C 80 % 1014,9 hPa 0,0 mm 3,2 km/h (1 Bft) O-SO 112 0 min 0 UV-I 0 W/m 11,3 km/h (2 Bft)
10.10.2010 06:50 8,0 C 80 % 1014,9 hPa 0,0 mm 1,6 km/h (1 Bft) O-SO 112 0 min 0 UV-I 0 W/m 9,7 km/h (2 Bft)
10.10.2010 07:00 7,9 C 80 % 1014,9 hPa 0,0 mm 3,2 km/h (1 Bft) O-SO 112 0 min 0 UV-I 0 W/m 14,5 km/h (3 Bft)
10.10.2010 07:10 7,9 C 80 % 1014,9 hPa 0,0 mm 1,6 km/h (1 Bft) O 90 0 min 0 UV-I 0 W/m 8,0 km/h (2 Bft)
10.10.2010 07:20 7,7 C 81 % 1014,9 hPa 0,0 mm 0,0 km/h (0 Bft) O 90 0 min 0 UV-I 0 W/m 3,2 km/h (1 Bft)
10.10.2010 07:30 7,5 C 81 % 1014,8 hPa 0,0 mm 0,0 km/h (0 Bft) O 90 0 min 0 UV-I 0 W/m 1,6 km/h (1 Bft)
10.10.2010 07:40 7,5 C 81 % 1014,9 hPa 0,0 mm 1,6 km/h (1 Bft) O 90 0 min 0 UV-I 0 W/m 6,4 km/h (2 Bft)
10.10.2010 07:50 7,4 C 81 % 1015,0 hPa 0,0 mm 0,0 km/h (0 Bft) O 90 0 min 0 UV-I 7 W/m 4,8 km/h (1 Bft)
10.10.2010 08:00 7,3 C 81 % 1014,9 hPa 0,0 mm 0,1 km/h (0 Bft) O-SO 119 0 min 0 UV-I 11 W/m 1,6 km/h (1 Bft)
10.10.2010 08:10 7,3 C 81 % 1015,0 hPa 0,0 mm 1,6 km/h (1 Bft) O-SO 112 0 min 0 UV-I 16 W/m 6,4 km/h (2 Bft)
10.10.2010 08:20 7,3 C 81 % 1015,0 hPa 0,0 mm 1,6 km/h (1 Bft) O-SO 112 0 min 0 UV-I 21 W/m 6,4 km/h (2 Bft)
10.10.2010 08:30 7,3 C 82 % 1015,0 hPa 0,0 mm 4,8 km/h (1 Bft) O 90 0 min 0 UV-I 25 W/m 9,7 km/h (2 Bft)
10.10.2010 08:40 7,4 C 82 % 1015,0 hPa 0,0 mm 4,8 km/h (1 Bft) O-SO 112 10 min 0 UV-I 98 W/m 11,3 km/h (2 Bft)
10.10.2010 08:50 7,6 C 82 % 1015,0 hPa 0,0 mm 4,8 km/h (1 Bft) O-SO 112 10 min 0 UV-I 123 W/m 14,5 km/h (3 Bft)
10.10.2010 09:00 7,9 C 82 % 1015,0 hPa 0,0 mm 4,8 km/h (1 Bft) O-SO 112 10 min 1 UV-I 146 W/m 11,3 km/h (2 Bft)
10.10.2010 09:10 8,4 C 79 % 1015,0 hPa 0,0 mm 3,2 km/h (1 Bft) O-SO 112 10 min 1 UV-I 171 W/m 11,3 km/h (2 Bft)
10.10.2010 09:20 9,5 C 76 % 1015,0 hPa 0,0 mm 3,2 km/h (1 Bft) O 90 10 min 1 UV-I 197 W/m 9,7 km/h (2 Bft)
10.10.2010 09:30 10,1 C 74 % 1015,0 hPa 0,0 mm 3,2 km/h (1 Bft) O 90 10 min 1 UV-I 221 W/m 9,7 km/h (2 Bft)
10.10.2010 09:40 10,4 C 73 % 1015,0 hPa 0,0 mm 3,2 km/h (1 Bft) O 90 10 min 1 UV-I 246 W/m 11,3 km/h (2 Bft)
10.10.2010 09:50 10,8 C 72 % 1015,3 hPa 0,0 mm 1,6 km/h (1 Bft) SO 135 10 min 1 UV-I 269 W/m 6,4 km/h (2 Bft)
10.10.2010 10:00 11,2 C 71 % 1015,2 hPa 0,0 mm 3,2 km/h (1 Bft) O-SO 112 10 min 1 UV-I 292 W/m 14,5 km/h (3 Bft)
10.10.2010 10:10 11,6 C 68 % 1015,2 hPa 0,0 mm 3,2 km/h (1 Bft) O-SO 112 10 min 1 UV-I 316 W/m 16,1 km/h (3 Bft)
10.10.2010 10:20 11,9 C 66 % 1015,2 hPa 0,0 mm 6,4 km/h (2 Bft) O-SO 112 10 min 1 UV-I 343 W/m 19,3 km/h (3 Bft)
10.10.2010 10:30 12,2 C 64 % 1015,3 hPa 0,0 mm 6,4 km/h (2 Bft) O-SO 112 10 min 2 UV-I 364 W/m 16,1 km/h (3 Bft)
10.10.2010 10:40 12,6 C 64 % 1015,3 hPa 0,0 mm 5,7 km/h (1 Bft) S 186 10 min 2 UV-I 376 W/m 14,5 km/h (3 Bft)
10.10.2010 10:50 12,9 C 62 % 1015,3 hPa 0,0 mm 3,8 km/h (1 Bft) O-SO 117 10 min 2 UV-I 397 W/m 11,3 km/h (2 Bft)
10.10.2010 11:00 13,3 C 62 % 1015,3 hPa 0,0 mm 4,7 km/h (1 Bft) O-SO 111 10 min 2 UV-I 421 W/m 11,3 km/h (2 Bft)
10.10.2010 11:10 13,4 C 60 % 1015,1 hPa 0,0 mm 7,4 km/h (2 Bft) SO 130 10 min 2 UV-I 442 W/m 19,3 km/h (3 Bft)
10.10.2010 11:20 14,0 C 59 % 1015,2 hPa 0,0 mm 4,4 km/h (1 Bft) SO 145 10 min 2 UV-I 463 W/m 11,3 km/h (2 Bft)
10.10.2010 11:30 14,3 C 58 % 1015,1 hPa 0,0 mm 4,8 km/h (1 Bft) O-SO 122 10 min 2 UV-I 480 W/m 11,3 km/h (2 Bft)
10.10.2010 11:40 14,8 C 59 % 1015,0 hPa 0,0 mm 4,8 km/h (1 Bft) O-SO 111 10 min 2 UV-I 498 W/m 16,1 km/h (3 Bft)
10.10.2010 11:50 15,5 C 54 % 1015,0 hPa 0,0 mm 2,9 km/h (1 Bft) O-NO 60 10 min 3 UV-I 514 W/m 11,3 km/h (2 Bft)
10.10.2010 12:00 15,6 C 52 % 1015,0 hPa 0,0 mm 5,1 km/h (1 Bft) O-SO 115 10 min 3 UV-I 526 W/m 17,7 km/h (3 Bft)
10.10.2010 12:10 15,8 C 52 % 1014,9 hPa 0,0 mm 7,1 km/h (2 Bft) SO 132 10 min 3 UV-I 538 W/m 20,9 km/h (4 Bft)
10.10.2010 12:20 16,1 C 49 % 1015,0 hPa 0,0 mm 6,5 km/h (2 Bft) O-NO 61 10 min 3 UV-I 549 W/m 16,1 km/h (3 Bft)
10.10.2010 12:30 16,2 C 50 % 1014,9 hPa 0,0 mm 7,0 km/h (2 Bft) O-SO 114 10 min 3 UV-I 555 W/m 16,1 km/h (3 Bft)
10.10.2010 12:40 16,2 C 49 % 1014,8 hPa 0,0 mm 6,9 km/h (2 Bft) NO 53 10 min 3 UV-I 562 W/m 19,3 km/h (3 Bft)
10.10.2010 12:50 16,5 C 51 % 1014,6 hPa 0,0 mm 7,3 km/h (2 Bft) O-NO 61 10 min 3 UV-I 568 W/m 14,5 km/h (3 Bft)
10.10.2010 13:00 16,9 C 49 % 1014,7 hPa 0,0 mm 5,2 km/h (1 Bft) NO 34 10 min 3 UV-I 573 W/m 16,1 km/h (3 Bft)
10.10.2010 13:10 16,9 C 48 % 1014,5 hPa 0,0 mm 6,0 km/h (2 Bft) O-NO 78 10 min 3 UV-I 577 W/m 16,1 km/h (3 Bft)
10.10.2010 13:20 17,2 C 45 % 1014,5 hPa 0,0 mm 7,2 km/h (2 Bft) O 97 10 min 3 UV-I 580 W/m 16,1 km/h (3 Bft)
10.10.2010 13:30 17,3 C 48 % 1014,6 hPa 0,0 mm 7,2 km/h (2 Bft) O 92 10 min 3 UV-I 581 W/m 17,7 km/h (3 Bft)
10.10.2010 13:40 17,4 C 46 % 1014,6 hPa 0,0 mm 8,7 km/h (2 Bft) SO 146 10 min 3 UV-I 576 W/m 20,9 km/h (4 Bft)
10.10.2010 13:50 18,0 C 47 % 1014,5 hPa 0,0 mm 5,7 km/h (1 Bft) SO 132 10 min 3 UV-I 576 W/m 14,5 km/h (3 Bft)
10.10.2010 14:00 17,8 C 47 % 1014,6 hPa 0,0 mm 6,2 km/h (2 Bft) O 96 10 min 3 UV-I 567 W/m 14,5 km/h (3 Bft)
10.10.2010 14:10 18,0 C 45 % 1014,6 hPa 0,0 mm 4,8 km/h (1 Bft) O-NO 67 10 min 3 UV-I 568 W/m 16,1 km/h (3 Bft)
10.10.2010 14:20 18,2 C 44 % 1014,6 hPa 0,0 mm 6,4 km/h (2 Bft) O 90 10 min 3 UV-I 557 W/m 17,7 km/h (3 Bft)
10.10.2010 14:30 18,1 C 42 % 1014,7 hPa 0,0 mm 6,4 km/h (2 Bft) O 90 10 min 3 UV-I 547 W/m 16,1 km/h (3 Bft)
10.10.2010 14:40 18,3 C 40 % 1014,7 hPa 0,0 mm 6,4 km/h (2 Bft) O 90 10 min 3 UV-I 541 W/m 17,7 km/h (3 Bft)
10.10.2010 14:50 18,3 C 39 % 1014,6 hPa 0,0 mm 8,0 km/h (2 Bft) O-SO 112 10 min 2 UV-I 534 W/m 17,7 km/h (3 Bft)
10.10.2010 15:00 18,3 C 39 % 1014,6 hPa 0,0 mm 8,0 km/h (2 Bft) O 90 10 min 2 UV-I 519 W/m 19,3 km/h (3 Bft)
10.10.2010 15:10 18,4 C 40 % 1014,6 hPa 0,0 mm 8,0 km/h (2 Bft) O 90 10 min 2 UV-I 501 W/m 20,9 km/h (4 Bft)
10.10.2010 15:20 18,3 C 39 % 1014,6 hPa 0,0 mm 9,7 km/h (2 Bft) O 90 10 min 2 UV-I 489 W/m 19,3 km/h (3 Bft)
10.10.2010 15:30 18,4 C 40 % 1014,4 hPa 0,0 mm 4,8 km/h (1 Bft) O-SO 112 10 min 2 UV-I 475 W/m 17,7 km/h (3 Bft)
10.10.2010 15:40 18,4 C 41 % 1014,4 hPa 0,0 mm 4,8 km/h (1 Bft) O 90 10 min 2 UV-I 457 W/m 14,5 km/h (3 Bft)
10.10.2010 15:50 18,6 C 40 % 1014,3 hPa 0,0 mm 4,8 km/h (1 Bft) O-SO 112 10 min 2 UV-I 434 W/m 16,1 km/h (3 Bft)
10.10.2010 16:00 18,4 C 41 % 1014,3 hPa 0,0 mm 4,8 km/h (1 Bft) O 85 10 min 1 UV-I 338 W/m 9,7 km/h (2 Bft)
10.10.2010 16:10 18,4 C 41 % 1014,3 hPa 0,0 mm 4,8 km/h (1 Bft) O-SO 112 10 min 1 UV-I 390 W/m 14,5 km/h (3 Bft)
10.10.2010 16:20 18,5 C 48 % 1014,2 hPa 0,0 mm 4,8 km/h (1 Bft) O-NO 67 10 min 1 UV-I 369 W/m 17,7 km/h (3 Bft)
10.10.2010 16:30 18,6 C 48 % 1014,2 hPa 0,0 mm 3,2 km/h (1 Bft) O-NO 67 10 min 1 UV-I 348 W/m 11,3 km/h (2 Bft)
10.10.2010 16:40 18,3 C 50 % 1014,1 hPa 0,0 mm 3,2 km/h (1 Bft) O-NO 67 10 min 1 UV-I 322 W/m 14,5 km/h (3 Bft)
10.10.2010 16:50 18,2 C 49 % 1014,1 hPa 0,0 mm 4,8 km/h (1 Bft) O 90 10 min 1 UV-I 295 W/m 12,9 km/h (3 Bft)
10.10.2010 17:00 18,1 C 51 % 1014,0 hPa 0,0 mm 3,2 km/h (1 Bft) O-NO 67 10 min 1 UV-I 265 W/m 6,4 km/h (2 Bft)
10.10.2010 17:10 17,8 C 53 % 1014,0 hPa 0,0 mm 3,2 km/h (1 Bft) O-NO 67 10 min 1 UV-I 241 W/m 9,7 km/h (2 Bft)
10.10.2010 17:20 17,4 C 55 % 1014,2 hPa 0,0 mm 3,2 km/h (1 Bft) O-NO 67 10 min 1 UV-I 213 W/m 9,7 km/h (2 Bft)
10.10.2010 17:30 17,1 C 57 % 1014,1 hPa 0,0 mm 3,2 km/h (1 Bft) O 90 10 min 1 UV-I 185 W/m 9,7 km/h (2 Bft)
10.10.2010 17:40 16,6 C 59 % 1014,3 hPa 0,0 mm 3,2 km/h (1 Bft) NO 45 10 min 1 UV-I 162 W/m 9,7 km/h (2 Bft)
10.10.2010 17:50 16,1 C 60 % 1014,2 hPa 0,0 mm 3,2 km/h (1 Bft) O-NO 67 10 min 0 UV-I 135 W/m 16,1 km/h (3 Bft)
10.10.2010 18:00 15,7 C 61 % 1014,2 hPa 0,0 mm 3,2 km/h (1 Bft) O-NO 67 10 min 0 UV-I 107 W/m 11,3 km/h (2 Bft)
10.10.2010 18:10 15,1 C 62 % 1014,3 hPa 0,0 mm 3,2 km/h (1 Bft) O-NO 67 0 min 0 UV-I 23 W/m 9,7 km/h (2 Bft)
10.10.2010 18:20 14,6 C 65 % 1014,3 hPa 0,0 mm 1,6 km/h (1 Bft) O-NO 67 0 min 0 UV-I 21 W/m 8,0 km/h (2 Bft)
10.10.2010 18:30 14,1 C 66 % 1014,4 hPa 0,0 mm 3,2 km/h (1 Bft) NO 45 10 min 0 UV-I 14 W/m 9,7 km/h (2 Bft)
10.10.2010 18:40 13,6 C 68 % 1014,4 hPa 0,0 mm 1,6 km/h (1 Bft) O-NO 67 0 min 0 UV-I 9 W/m 6,4 km/h (2 Bft)
10.10.2010 18:50 13,1 C 71 % 1014,6 hPa 0,0 mm 1,6 km/h (1 Bft) O-NO 67 0 min 0 UV-I 5 W/m 8,0 km/h (2 Bft)
10.10.2010 19:00 12,7 C 72 % 1014,6 hPa 0,0 mm 0,0 km/h (0 Bft) O-NO 67 0 min 0 UV-I 0 W/m 3,2 km/h (1 Bft)
10.10.2010 19:10 12,2 C 74 % 1014,6 hPa 0,0 mm 0,0 km/h (0 Bft) O-NO 67 0 min 0 UV-I 0 W/m 4,8 km/h (1 Bft)
10.10.2010 19:20 11,8 C 74 % 1014,9 hPa 0,0 mm 0,0 km/h (0 Bft) O-NO 67 0 min 0 UV-I 0 W/m 3,2 km/h (1 Bft)
10.10.2010 19:30 11,5 C 75 % 1014,9 hPa 0,0 mm 0,0 km/h (0 Bft) O-NO 67 0 min 0 UV-I 0 W/m 3,2 km/h (1 Bft)
10.10.2010 19:40 11,1 C 76 % 1015,0 hPa 0,0 mm 0,1 km/h (0 Bft) NO 40 0 min 0 UV-I 0 W/m 1,6 km/h (1 Bft)
10.10.2010 19:50 10,7 C 76 % 1015,1 hPa 0,0 mm 0,1 km/h (0 Bft) NO 40 0 min 0 UV-I 0 W/m 1,6 km/h (1 Bft)
10.10.2010 20:00 10,6 C 76 % 1015,2 hPa 0,0 mm 0,1 km/h (0 Bft) NO 39 0 min 0 UV-I 0 W/m 1,6 km/h (1 Bft)
10.10.2010 20:10 10,2 C 77 % 1015,2 hPa 0,0 mm 0,1 km/h (0 Bft) NO 40 0 min 0 UV-I 0 W/m 3,2 km/h (1 Bft)
10.10.2010 20:20 10,1 C 76 % 1015,2 hPa 0,0 mm 0,2 km/h (0 Bft) NO 53 0 min 0 UV-I 0 W/m 3,2 km/h (1 Bft)
10.10.2010 20:30 10,2 C 75 % 1015,2 hPa 0,0 mm 0,1 km/h (0 Bft) NO 54 0 min 0 UV-I 0 W/m 3,2 km/h (1 Bft)
10.10.2010 20:40 10,1 C 74 % 1015,2 hPa 0,0 mm 0,0 km/h (0 Bft) NO 54 0 min 0 UV-I 0 W/m 1,6 km/h (1 Bft)
10.10.2010 20:50 9,9 C 74 % 1015,3 hPa 0,0 mm 0,0 km/h (0 Bft) NO 54 0 min 0 UV-I 0 W/m 1,6 km/h (1 Bft)
10.10.2010 21:00 9,8 C 73 % 1015,4 hPa 0,0 mm 0,9 km/h (0 Bft) S-SO 157 0 min 0 UV-I 0 W/m 8,0 km/h (2 Bft)
10.10.2010 21:10 10,0 C 71 % 1015,3 hPa 0,0 mm 2,3 km/h (1 Bft) O 98 0 min 0 UV-I 0 W/m 8,0 km/h (2 Bft)
10.10.2010 21:20 9,9 C 71 % 1015,4 hPa 0,0 mm 1,2 km/h (1 Bft) O 98 0 min 0 UV-I 0 W/m 9,7 km/h (2 Bft)
10.10.2010 21:30 9,6 C 71 % 1015,4 hPa 0,0 mm 0,3 km/h (0 Bft) O 99 0 min 0 UV-I 0 W/m 3,2 km/h (1 Bft)
10.10.2010 21:40 9,1 C 73 % 1015,5 hPa 0,0 mm 0,0 km/h (0 Bft) O 99 0 min 0 UV-I 0 W/m 0,0 km/h (0 Bft)
10.10.2010 21:50 8,8 C 74 % 1015,7 hPa 0,0 mm 0,2 km/h (0 Bft) O-NO 77 0 min 0 UV-I 0 W/m 3,2 km/h (1 Bft)
10.10.2010 22:00 9,2 C 73 % 1015,8 hPa 0,0 mm 1,8 km/h (1 Bft) NO 34 0 min 0 UV-I 0 W/m 9,7 km/h (2 Bft)
10.10.2010 22:10 9,2 C 72 % 1015,8 hPa 0,0 mm 0,5 km/h (0 Bft) O-SO 111 0 min 0 UV-I 0 W/m 4,8 km/h (1 Bft)
10.10.2010 22:20 8,9 C 72 % 1015,7 hPa 0,0 mm 0,0 km/h (0 Bft) O-SO 111 0 min 0 UV-I 0 W/m 1,6 km/h (1 Bft)
10.10.2010 22:30 8,6 C 73 % 1015,8 hPa 0,0 mm 0,0 km/h (0 Bft) O-SO 111 0 min 0 UV-I 0 W/m 1,6 km/h (1 Bft)
10.10.2010 22:40 7,8 C 76 % 1015,8 hPa 0,0 mm 0,1 km/h (0 Bft) O-SO 111 0 min 0 UV-I 0 W/m 1,6 km/h (1 Bft)
10.10.2010 22:50 7,2 C 78 % 1015,8 hPa 0,0 mm 0,2 km/h (0 Bft) O-SO 111 0 min 0 UV-I 0 W/m 1,6 km/h (1 Bft)
10.10.2010 23:00 7,4 C 78 % 1015,9 hPa 0,0 mm 0,2 km/h (0 Bft) O 101 0 min 0 UV-I 0 W/m 3,2 km/h (1 Bft)
10.10.2010 23:10 7,5 C 76 % 1015,9 hPa 0,0 mm 0,1 km/h (0 Bft) O 101 0 min 0 UV-I 0 W/m 1,6 km/h (1 Bft)
10.10.2010 23:20 7,4 C 76 % 1015,8 hPa 0,0 mm 0,5 km/h (0 Bft) O 92 0 min 0 UV-I 0 W/m 4,8 km/h (1 Bft)
10.10.2010 23:30 7,4 C 76 % 1015,9 hPa 0,0 mm 0,5 km/h (0 Bft) O-NO 57 0 min 0 UV-I 0 W/m 4,8 km/h (1 Bft)
10.10.2010 23:40 7,3 C 77 % 1015,9 hPa 0,0 mm 0,4 km/h (0 Bft) O 81 0 min 0 UV-I 0 W/m 3,2 km/h (1 Bft)
10.10.2010 23:50 7,3 C 77 % 1016,0 hPa 0,0 mm 0,5 km/h (0 Bft) O 79 0 min 0 UV-I 0 W/m 4,8 km/h (1 Bft)
_ Min-Zeit 22:50 14:50 17:00 - 00:30 - - - - - 21:40
Minimum _ 7,2 C 39 % 1014,0 hPa - 0,0 km/h (0 Bft) - - - - - 0,0 km/h (0 Bft)
_ Max-Zeit 16:30 08:30 00:00 00:00 15:20 - - 08:40 12:50 13:30 12:10
Maximum _ 18,7 C 82 % 1017,0 hPa 0,0 mm 9,7 km/h
O (2 Bft)
- - 10 min 3 UV-I 581 W/m 20,9 km/h
O (4 Bft)
Durchschnitt _ 11,8 C 68 % 1015,1 hPa #0,0 mm 2,7 km/h (1 Bft) O-SO - #9:40 h 2 UV-I 341 W/m 9,2 km/h (2 Bft)